createdAt,value
2022-12-04T00:06:23.766Z,94.3
2022-12-04T00:46:22.554Z,90.8
2022-12-04T02:29:22.956Z,89.5
2022-12-04T02:55:16.298Z,89.3
2022-12-04T03:08:43.457Z,89.6
2022-12-04T03:21:03.628Z,89.5
2022-12-04T03:33:45.421Z,89.3
2022-12-04T03:39:52.440Z,90.1
2022-12-04T03:45:58.707Z,90.1
2022-12-04T03:58:35.384Z,90.6
2022-12-04T04:11:41.331Z,90.3
2022-12-04T04:17:51.718Z,90.5
2022-12-04T04:24:12.359Z,90.9
2022-12-04T04:30:35.643Z,90.6
2022-12-04T04:36:56.231Z,90.9
2022-12-04T04:43:33.892Z,91
2022-12-04T04:55:56.158Z,90.6
2022-12-04T05:02:01.716Z,90.7
2022-12-04T05:07:57.196Z,91.6
2022-12-04T05:13:57.384Z,91.6
2022-12-04T05:20:05.802Z,91.7
2022-12-04T05:26:46.680Z,91.6
2022-12-04T05:32:38.416Z,91.9
2022-12-04T05:39:03.801Z,91.6
2022-12-04T05:45:13.282Z,91.9
2022-12-04T05:51:40.617Z,92.4
2022-12-04T05:57:32.618Z,92.6
2022-12-04T06:09:44.418Z,92.6
2022-12-04T06:15:53.526Z,91.5
2022-12-04T06:22:02.691Z,92.2
2022-12-04T06:28:07.404Z,91.8
2022-12-04T06:34:23.510Z,92
2022-12-04T06:40:30.654Z,91.9
2022-12-04T06:46:32.219Z,92.5
2022-12-04T06:52:52.644Z,92.8
2022-12-04T07:18:23.872Z,93.2
2022-12-04T07:24:31.379Z,93.6
2022-12-04T07:30:36.441Z,92.9
2022-12-04T07:42:33.545Z,92.9
2022-12-04T07:54:59.108Z,93.1
2022-12-04T08:00:56.345Z,92.3
2022-12-04T08:06:52.723Z,92.9
2022-12-04T08:12:48.521Z,94.1
2022-12-04T08:18:42.992Z,93.6
2022-12-04T08:24:45.187Z,93.2
2022-12-04T08:30:41.442Z,93.8
2022-12-04T08:36:46.988Z,93.6
2022-12-04T08:42:55.298Z,93.8
2022-12-04T08:48:50.347Z,94.1
2022-12-04T10:25:00.045Z,94.4
2022-12-04T10:31:19.357Z,94
2022-12-04T10:37:38.346Z,93.3
2022-12-04T10:43:42.408Z,92.9
2022-12-04T10:49:45.896Z,94
2022-12-04T11:02:37.611Z,94.3
2022-12-04T11:15:13.641Z,93.5
2022-12-04T11:21:20.677Z,92.9
2022-12-04T11:27:29.552Z,93.3
2022-12-04T11:40:04.782Z,93.4
2022-12-04T11:45:59.058Z,93.8
2022-12-04T11:52:04.099Z,93.2
2022-12-04T11:58:37.630Z,92.9
2022-12-04T12:32:22.369Z,92.1
2022-12-04T12:38:36.709Z,92.3
2022-12-04T12:45:07.259Z,92.8
2022-12-04T13:04:12.124Z,92.1
2022-12-04T13:10:08.122Z,92.7
2022-12-04T13:16:16.850Z,92.5
2022-12-04T13:55:56.778Z,93.7
2022-12-04T14:41:42.359Z,94.9
2022-12-04T14:55:00.921Z,94.6
2022-12-04T15:07:26.387Z,95.5
2022-12-04T15:13:24.646Z,95.9
2022-12-04T15:19:23.946Z,95.6
2022-12-04T15:32:16.420Z,95.5
2022-12-04T15:38:24.112Z,96.2
2022-12-04T15:44:31.942Z,95.9
2022-12-04T15:57:17.332Z,96.2
2022-12-04T16:03:31.004Z,96.3
2022-12-04T16:09:37.650Z,97.1
2022-12-04T16:16:12.000Z,97.2
2022-12-04T16:23:41.683Z,97.6
2022-12-04T16:30:05.933Z,98.3
2022-12-04T16:36:25.264Z,97.7
2022-12-04T16:42:18.332Z,97.2
2022-12-04T16:48:10.559Z,97.4
2022-12-04T16:54:04.719Z,96.8
2022-12-04T17:00:01.965Z,97.7
2022-12-04T17:05:52.900Z,100
2022-12-04T17:11:50.452Z,100
2022-12-04T17:17:40.948Z,100
2022-12-04T17:23:32.786Z,100
2022-12-04T17:29:28.723Z,100
2022-12-04T17:35:38.009Z,100
2022-12-04T17:41:57.998Z,100
2022-12-04T17:48:10.710Z,100
2022-12-04T17:54:14.048Z,100
2022-12-04T18:00:21.084Z,100
2022-12-04T18:12:57.899Z,100
2022-12-04T18:19:26.334Z,100
2022-12-04T18:31:44.224Z,100
2022-12-04T18:38:02.048Z,100
2022-12-04T18:44:44.825Z,100
2022-12-04T18:51:11.310Z,100
2022-12-04T18:57:35.537Z,100
2022-12-04T19:04:07.683Z,100
2022-12-04T19:10:16.169Z,100
2022-12-04T19:22:32.560Z,100
2022-12-04T19:28:38.081Z,100
2022-12-04T19:34:53.610Z,100
2022-12-04T19:40:56.944Z,100
2022-12-04T19:52:45.616Z,100
2022-12-04T19:58:55.420Z,100
2022-12-04T20:04:48.762Z,100
2022-12-04T20:30:09.724Z,100
2022-12-04T20:36:09.103Z,100
2022-12-04T20:42:13.989Z,100
2022-12-04T20:48:10.661Z,100
2022-12-04T20:54:19.817Z,100
2022-12-04T21:00:13.184Z,100
2022-12-04T21:06:08.973Z,100
2022-12-04T21:12:03.227Z,100
2022-12-04T21:18:14.557Z,100
2022-12-04T21:24:19.622Z,100
2022-12-04T21:30:35.793Z,100
2022-12-04T21:37:03.994Z,100
2022-12-04T21:43:07.905Z,100
2022-12-04T21:49:00.574Z,100
2022-12-04T21:54:55.816Z,100
2022-12-04T22:00:47.818Z,100
2022-12-04T22:06:39.448Z,100
2022-12-04T22:12:51.520Z,100
2022-12-04T22:18:50.747Z,100
2022-12-04T22:24:45.564Z,100
2022-12-04T22:30:40.873Z,100
2022-12-04T22:36:41.495Z,100
2022-12-04T22:42:42.054Z,100
2022-12-04T22:48:40.718Z,100
2022-12-04T22:54:32.401Z,100
2022-12-04T23:00:38.831Z,100
2022-12-04T23:06:36.429Z,100
2022-12-04T23:12:48.717Z,100
2022-12-04T23:18:38.832Z,100
2022-12-04T23:24:30.695Z,100
2022-12-04T23:43:04.722Z,100
2022-12-04T23:55:18.748Z,100
